Time;durP1;ratioP1;P1;durP2;ratioP2;P2;SDS_P1;SDS_P2;PMS_P1;PMS_P2;Temp;Humidity;BMP_temperature;BMP_pressure;BME280_temperature;BME280_humidity;BME280_pressure;Samples;Min_cycle;Max_cycle;Signal;HPM_P1;HPM_P2
2023/04/16 00:00:30;;;;;;;8.85;4.72;;;;;;;5.17;23.60;101349.22;5092392;28;20023;-65
2023/04/16 00:02:56;;;;;;;11.75;5.22;;;;;;;5.05;23.78;101342.53;5092312;28;20055;-64
2023/04/16 00:05:21;;;;;;;9.48;5.20;;;;;;;4.99;24.26;101354.22;5092442;28;20510;-64
2023/04/16 00:07:47;;;;;;;12.15;5.03;;;;;;;4.95;24.05;101363.22;5074163;28;20497;-63
2023/04/16 00:10:13;;;;;;;9.00;4.88;;;;;;;4.95;23.86;101355.25;5074451;28;20351;-65
2023/04/16 00:12:38;;;;;;;9.57;5.28;;;;;;;4.88;24.20;101351.91;5074508;28;20032;-64
2023/04/16 00:15:04;;;;;;;10.90;4.90;;;;;;;4.95;24.13;101360.56;5074467;28;20024;-64
2023/04/16 00:17:31;;;;;;;8.02;4.72;;;;;;;4.89;24.00;101361.63;5093855;28;20043;-64
2023/04/16 00:19:57;;;;;;;10.98;5.50;;;;;;;5.12;24.10;101364.47;5095983;28;20878;-65
2023/04/16 00:22:22;;;;;;;8.70;4.65;;;;;;;5.02;24.34;101355.94;5096190;28;20146;-65
2023/04/16 00:24:48;;;;;;;12.32;5.15;;;;;;;5.13;24.30;101361.72;5096022;28;20051;-64
2023/04/16 00:27:13;;;;;;;12.35;5.75;;;;;;;5.05;24.17;101357.59;5096074;28;20028;-63
2023/04/16 00:29:39;;;;;;;13.80;5.07;;;;;;;4.91;24.50;101366.00;5096089;28;20066;-64
2023/04/16 00:32:06;;;;;;;10.68;5.03;;;;;;;4.80;24.93;101364.56;5096132;28;20043;-63
2023/04/16 00:34:32;;;;;;;11.75;5.32;;;;;;;4.74;25.01;101370.94;5096220;28;20078;-66
2023/04/16 00:36:57;;;;;;;12.75;5.53;;;;;;;4.66;25.10;101366.78;5095888;28;20047;-65
2023/04/16 00:39:23;;;;;;;9.63;5.22;;;;;;;4.60;25.01;101367.88;5074486;28;20378;-64
2023/04/16 00:41:48;;;;;;;14.63;5.72;;;;;;;4.62;25.36;101366.03;5075839;28;20403;-64
2023/04/16 00:44:14;;;;;;;11.57;5.10;;;;;;;4.54;25.29;101368.03;5075497;28;20426;-65
2023/04/16 00:46:40;;;;;;;11.88;5.90;;;;;;;4.55;25.22;101364.47;5075755;28;20051;-64
2023/04/16 00:49:06;;;;;;;12.45;6.15;;;;;;;4.52;25.49;101380.47;5074920;28;20055;-63
2023/04/16 00:51:34;;;;;;;13.93;5.22;;;;;;;4.42;25.21;101348.94;5075402;28;20408;-64
2023/04/16 00:53:59;;;;;;;14.55;5.43;;;;;;;4.55;25.68;101370.66;5074641;28;20020;-64
2023/04/16 00:56:25;;;;;;;12.85;5.78;;;;;;;4.57;25.64;101363.50;5075559;28;20029;-64
2023/04/16 00:58:51;;;;;;;12.77;5.50;;;;;;;4.56;25.32;101366.19;5075006;28;20111;-62
2023/04/16 01:01:16;;;;;;;13.05;5.60;;;;;;;4.53;26.02;101361.88;5075426;28;20040;-62
2023/04/16 01:03:45;;;;;;;8.45;4.80;;;;;;;4.52;25.63;101356.59;5075569;28;20043;-64
2023/04/16 01:06:11;;;;;;;13.23;5.13;;;;;;;4.53;25.91;101366.28;5075348;28;20039;-64
2023/04/16 01:08:36;;;;;;;10.80;5.22;;;;;;;4.51;26.39;101357.50;5074376;28;20318;-64
2023/04/16 01:11:02;;;;;;;11.07;5.60;;;;;;;4.59;25.85;101360.81;5075221;28;20332;-64
2023/04/16 01:13:29;;;;;;;12.95;5.53;;;;;;;4.54;25.85;101362.72;5074086;28;20356;-64
2023/04/16 01:15:55;;;;;;;12.45;5.80;;;;;;;4.48;25.67;101352.31;5075160;28;20032;-64
2023/04/16 01:18:21;;;;;;;10.73;5.53;;;;;;;4.48;26.14;101358.50;5074311;28;20043;-64
2023/04/16 01:20:48;;;;;;;11.07;5.25;;;;;;;4.51;25.80;101347.78;5074950;28;20386;-65
2023/04/16 01:23:14;;;;;;;12.57;5.40;;;;;;;4.44;25.66;101346.22;5075071;28;20040;-66
2023/04/16 01:25:40;;;;;;;8.68;5.40;;;;;;;4.44;26.57;101355.06;5075009;28;20055;-64
2023/04/16 01:28:06;;;;;;;11.48;6.05;;;;;;;4.38;26.54;101352.59;5074205;28;20649;-63
2023/04/16 01:30:32;;;;;;;14.60;5.60;;;;;;;4.34;26.97;101345.66;5073913;28;20411;-64
2023/04/16 01:32:57;;;;;;;11.82;6.00;;;;;;;4.44;26.87;101352.41;5074800;28;20415;-63
2023/04/16 01:35:24;;;;;;;14.82;6.45;;;;;;;4.36;26.67;101335.00;5074807;28;20443;-64
2023/04/16 01:37:50;;;;;;;14.55;6.57;;;;;;;4.27;26.88;101328.19;5074652;28;20029;-64
2023/04/16 01:40:16;;;;;;;12.48;6.30;;;;;;;4.48;27.00;101357.63;5088883;28;20058;-65
2023/04/16 01:42:42;;;;;;;10.50;5.85;;;;;;;4.38;26.65;101355.25;5095297;28;20035;-64
2023/04/16 01:45:07;;;;;;;15.18;6.60;;;;;;;4.26;26.57;101324.66;5094747;28;20032;-65
2023/04/16 01:47:33;;;;;;;15.02;6.63;;;;;;;4.43;26.63;101353.31;5094504;28;20139;-64
2023/04/16 01:49:59;;;;;;;13.45;6.47;;;;;;;4.32;26.72;101331.56;5094356;28;20344;-64
2023/04/16 01:52:25;;;;;;;15.43;6.00;;;;;;;4.55;26.26;101348.53;5094774;28;20336;-64
2023/04/16 01:54:50;;;;;;;15.15;7.35;;;;;;;4.55;26.33;101348.53;5094855;28;20030;-63
2023/04/16 01:57:16;;;;;;;15.80;7.75;;;;;;;4.30;26.65;101322.78;5094570;28;20031;-64
2023/04/16 01:59:41;;;;;;;12.55;6.95;;;;;;;4.47;26.85;101347.91;5076177;28;20056;-63
2023/04/16 02:02:09;;;;;;;18.00;7.47;;;;;;;4.48;26.74;101365.56;5076727;28;20048;-64
2023/04/16 02:04:40;;;;;;;12.05;6.38;;;;;;;4.51;27.21;101361.06;5094448;28;20046;-65
2023/04/16 02:07:06;;;;;;;17.95;6.35;;;;;;;4.55;26.81;101370.66;5094309;28;20115;-64
2023/04/16 02:09:33;;;;;;;9.68;6.22;;;;;;;4.55;26.57;101359.16;5076236;28;20103;-64
2023/04/16 02:12:01;;;;;;;19.50;6.85;;;;;;;4.59;26.27;101363.47;5075906;28;20020;-64
2023/04/16 02:14:27;;;;;;;14.02;6.43;;;;;;;4.48;26.97;101342.59;5094216;28;20038;-64
2023/04/16 02:16:53;;;;;;;16.40;6.22;;;;;;;4.58;26.65;101359.06;5094118;28;20355;-64
2023/04/16 02:19:18;;;;;;;15.70;6.13;;;;;;;4.57;26.75;101367.94;5092856;28;20032;-64
2023/04/16 02:21:44;;;;;;;12.57;6.72;;;;;;;4.54;26.21;101365.38;5092368;28;20023;-63
2023/04/16 02:24:09;;;;;;;12.73;7.03;;;;;;;4.56;26.04;101360.88;5092966;28;20028;-64
2023/04/16 02:26:35;;;;;;;15.10;7.05;;;;;;;4.64;26.57;101353.59;5093879;28;20040;-63
2023/04/16 02:29:00;;;;;;;13.30;6.63;;;;;;;4.54;26.58;101362.72;5094054;28;20340;-65
2023/04/16 02:31:27;;;;;;;12.00;6.10;;;;;;;4.54;26.63;101357.41;5094076;28;20103;-64
2023/04/16 02:33:53;;;;;;;13.25;6.15;;;;;;;4.51;26.66;101368.13;5094003;28;20059;-64
2023/04/16 02:36:19;;;;;;;15.18;5.90;;;;;;;4.47;26.65;101355.88;5093537;28;20446;-64
2023/04/16 02:38:45;;;;;;;11.82;6.25;;;;;;;4.45;26.85;101359.44;5092970;28;20028;-63
2023/04/16 02:41:10;;;;;;;13.85;5.60;;;;;;;4.42;26.85;101353.34;5091960;28;20124;-64
2023/04/16 02:43:36;;;;;;;12.93;5.97;;;;;;;4.41;27.06;101360.47;5075667;28;20028;-64
2023/04/16 02:46:01;;;;;;;15.07;6.35;;;;;;;4.37;27.10;101358.81;5075701;28;20039;-65
2023/04/16 02:48:27;;;;;;;13.70;6.07;;;;;;;4.52;26.76;101370.75;5094064;28;20035;-65
2023/04/16 02:50:53;;;;;;;13.45;5.65;;;;;;;4.54;26.56;101368.03;5076097;28;20040;-64
2023/04/16 02:53:18;;;;;;;13.68;6.03;;;;;;;4.52;27.25;101368.09;5093689;28;20363;-63
2023/04/16 02:55:53;;;;;;;8.88;5.57;;;;;;;4.67;26.50;101372.06;5075718;28;20449;-65
2023/04/16 02:58:20;;;;;;;;;;;;;;;4.96;25.61;101374.72;5093361;28;20053;-65
2023/04/16 03:00:45;;;;;;;14.32;6.15;;;;;;;4.77;26.66;101375.28;5075534;28;20408;-64
2023/04/16 03:03:11;;;;;;;12.18;6.20;;;;;;;4.64;27.11;101369.50;5075502;28;20035;-64
2023/04/16 03:05:37;;;;;;;12.80;6.07;;;;;;;4.72;26.66;101378.09;5093264;28;20053;-64
2023/04/16 03:08:03;;;;;;;9.80;5.63;;;;;;;4.70;26.83;101371.97;5093010;28;20060;-64
2023/04/16 03:10:28;;;;;;;16.30;6.03;;;;;;;4.79;27.13;101384.06;5093178;28;20043;-64
2023/04/16 03:12:54;;;;;;;11.77;6.18;;;;;;;4.52;27.25;101338.03;5093038;28;20036;-64
2023/04/16 03:15:19;;;;;;;12.52;5.93;;;;;;;4.72;27.05;101377.22;5092932;28;20412;-64
2023/04/16 03:17:45;;;;;;;12.88;6.18;;;;;;;4.84;26.60;101379.47;5075724;28;20024;-66
2023/04/16 03:20:11;;;;;;;16.92;6.10;;;;;;;4.91;26.98;101382.81;5092754;28;20115;-64
2023/04/16 03:22:38;;;;;;;13.25;6.18;;;;;;;4.96;26.83;101378.22;5092880;28;20031;-65
2023/04/16 03:25:04;;;;;;;13.18;6.32;;;;;;;4.92;26.30;101363.31;5074663;28;20036;-64
2023/04/16 03:27:31;;;;;;;11.32;6.07;;;;;;;5.00;26.76;101374.53;5075115;28;20055;-64
2023/04/16 03:29:57;;;;;;;10.93;6.40;;;;;;;5.08;26.55;101374.31;5058525;28;20411;-70
2023/04/16 03:32:22;;;;;;;10.13;5.75;;;;;;;5.21;26.72;101376.56;5092453;28;20123;-68
2023/04/16 03:34:48;;;;;;;16.98;6.75;;;;;;;5.40;26.53;101376.81;5092430;28;20039;-68
2023/04/16 03:37:14;;;;;;;14.70;6.80;;;;;;;5.69;26.52;101369.59;5093333;28;20032;-66
2023/04/16 03:39:39;;;;;;;11.18;6.15;;;;;;;6.20;25.69;101366.94;5093053;28;20051;-66
2023/04/16 03:42:05;;;;;;;14.75;6.57;;;;;;;6.68;24.56;101368.63;5092625;28;20127;-66
2023/04/16 03:44:31;;;;;;;17.90;6.25;;;;;;;7.09;23.84;101369.69;5074899;28;20047;-67
2023/04/16 03:46:56;;;;;;;11.75;5.82;;;;;;;7.52;23.62;101359.00;5092899;28;20487;-67
2023/04/16 03:49:22;;;;;;;12.05;6.20;;;;;;;7.71;22.96;101300.41;5092449;28;20324;-66
2023/04/16 03:51:47;;;;;;;12.05;6.30;;;;;;;8.57;22.44;101366.78;5074369;28;20114;-67
2023/04/16 03:54:13;;;;;;;14.57;6.18;;;;;;;9.07;21.78;101369.75;5092080;28;20112;-66
2023/04/16 03:56:41;;;;;;;13.85;6.25;;;;;;;9.70;21.17;101371.03;5092585;28;20112;-66
2023/04/16 03:59:08;;;;;;;11.27;6.03;;;;;;;10.27;20.45;101356.44;5092179;28;20030;-68
2023/04/16 04:01:34;;;;;;;16.63;6.38;;;;;;;10.98;19.80;101373.91;5074506;28;20115;-67
2023/04/16 04:03:59;;;;;;;15.30;6.40;;;;;;;11.90;18.67;101372.09;5092482;28;20114;-67
2023/04/16 04:06:26;;;;;;;10.57;6.13;;;;;;;13.09;17.73;101365.50;5074529;28;20032;-65
2023/04/16 04:08:52;;;;;;;11.65;6.47;;;;;;;13.90;16.63;101366.31;5074045;28;20435;-65
2023/04/16 04:11:17;;;;;;;12.73;6.43;;;;;;;14.85;16.08;101361.41;5092070;28;20039;-65
2023/04/16 04:13:43;;;;;;;12.30;6.13;;;;;;;16.07;14.83;101349.44;5074281;28;20115;-67
2023/04/16 04:16:09;;;;;;;13.35;6.47;;;;;;;17.26;13.99;101345.28;5053889;28;20058;-67
2023/04/16 04:18:35;;;;;;;12.77;6.57;;;;;;;17.58;13.38;101295.59;5072032;28;20486;-67
2023/04/16 04:21:07;;;;;;;13.15;6.90;;;;;;;18.56;12.93;101366.50;5071858;28;20056;-66
2023/04/16 04:23:33;;;;;;;15.05;6.72;;;;;;;19.33;12.12;101368.63;5055216;28;20029;-65
2023/04/16 04:26:02;;;;;;;13.15;6.90;;;;;;;19.77;11.55;101365.41;5085314;28;20032;-66
2023/04/16 04:28:31;;;;;;;13.13;5.95;;;;;;;20.20;11.51;101355.84;5092186;28;20028;-66
2023/04/16 04:30:57;;;;;;;11.60;6.30;;;;;;;20.91;11.11;101358.06;5074369;28;20027;-66
2023/04/16 04:33:24;;;;;;;11.02;6.20;;;;;;;21.44;10.67;101359.06;5091762;28;20042;-66
2023/04/16 04:35:50;;;;;;;16.92;6.68;;;;;;;22.34;9.89;101352.50;5092420;28;20032;-66
2023/04/16 04:38:18;;;;;;;13.27;6.80;;;;;;;23.13;9.11;101348.59;5090943;28;20039;-64
2023/04/16 04:40:47;;;;;;;11.10;6.97;;;;;;;23.31;9.42;101359.41;5070943;28;20125;-64
2023/04/16 04:43:13;;;;;;;11.20;6.60;;;;;;;22.90;9.28;101362.03;5073291;28;20070;-65
2023/04/16 04:45:39;;;;;;;13.15;6.68;;;;;;;21.82;9.56;101339.78;5091599;28;20031;-64
2023/04/16 04:48:05;;;;;;;12.98;6.78;;;;;;;21.31;10.08;101358.59;5091309;28;20028;-69
2023/04/16 04:50:31;;;;;;;11.18;6.93;;;;;;;21.07;10.47;101363.69;5056652;28;20127;-57
2023/04/16 04:52:57;;;;;;;12.15;6.47;;;;;;;20.58;10.70;101357.69;5091307;28;20355;-66
2023/04/16 04:55:22;;;;;;;13.95;6.65;;;;;;;20.38;10.70;101357.78;5073639;28;20085;-66
2023/04/16 04:57:48;;;;;;;11.60;6.68;;;;;;;20.02;10.76;101353.06;5055416;28;20029;-68
2023/04/16 05:00:14;;;;;;;14.30;6.70;;;;;;;19.84;11.02;101357.53;5091565;28;20089;-68
2023/04/16 05:02:40;;;;;;;15.15;7.13;;;;;;;20.55;10.82;101352.56;5073249;28;20405;-64
2023/04/16 05:05:06;;;;;;;13.43;6.60;;;;;;;21.69;9.86;101355.69;5093660;28;20043;-66
2023/04/16 05:07:31;;;;;;;13.68;6.38;;;;;;;22.71;9.24;101350.44;5077429;28;20044;-78
2023/04/16 05:09:57;;;;;;;8.45;6.20;;;;;;;23.35;9.12;101357.19;5077613;28;20032;-78
2023/04/16 05:12:22;;;;;;;19.58;6.00;;;;;;;23.77;8.54;101355.25;5078283;28;20028;-75
2023/04/16 05:14:48;;;;;;;15.15;6.38;;;;;;;23.34;8.55;101359.06;5096632;28;20032;-74
2023/04/16 05:17:14;;;;;;;9.05;6.00;;;;;;;22.41;9.21;101357.28;5095762;28;20069;-73
2023/04/16 05:19:39;;;;;;;14.27;6.15;;;;;;;21.67;9.91;101357.72;5077350;28;20102;-75
2023/04/16 05:22:05;;;;;;;13.35;6.15;;;;;;;21.67;9.62;101352.28;5078012;28;20331;-76
2023/04/16 05:24:30;;;;;;;15.32;5.95;;;;;;;21.29;9.65;101366.06;5097050;28;20504;-77
2023/04/16 05:26:56;;;;;;;10.60;6.32;;;;;;;20.93;9.85;101345.16;5095259;28;20039;-74
2023/04/16 05:29:22;;;;;;;10.95;5.90;;;;;;;20.57;10.24;101353.25;5096130;28;20423;-76
2023/04/16 05:31:47;;;;;;;9.43;6.25;;;;;;;20.99;9.68;101360.03;5095098;28;20459;-75
2023/04/16 05:34:13;;;;;;;9.77;5.88;;;;;;;22.08;9.19;101349.81;5095039;28;20334;-76
2023/04/16 05:36:38;;;;;;;11.43;6.25;;;;;;;23.46;8.55;101347.78;5077133;28;20117;-75
2023/04/16 05:39:06;;;;;;;12.13;5.68;;;;;;;24.69;7.66;101347.56;5076677;28;20044;-74
2023/04/16 05:41:32;;;;;;;13.75;5.95;;;;;;;25.55;7.37;101358.44;5095031;28;20067;-75
2023/04/16 05:43:58;;;;;;;10.55;5.88;;;;;;;26.07;7.17;101340.25;5094794;28;20028;-75
2023/04/16 05:46:23;;;;;;;12.50;6.10;;;;;;;26.95;6.88;101346.84;5095174;28;20395;-73
2023/04/16 05:48:49;;;;;;;7.88;5.53;;;;;;;28.22;6.08;101348.91;5094762;28;20112;-76
2023/04/16 05:51:14;;;;;;;10.40;5.57;;;;;;;29.30;5.70;101347.31;5094803;28;20024;-76
2023/04/16 05:53:40;;;;;;;10.70;5.80;;;;;;;30.74;4.91;101340.19;5077211;28;20032;-77
2023/04/16 05:56:07;;;;;;;12.63;6.15;;;;;;;31.26;4.85;101339.22;5094716;28;20036;-77
2023/04/16 05:58:32;;;;;;;11.23;6.35;;;;;;;30.31;4.79;101344.44;5094686;28;20032;-76
2023/04/16 06:00:59;;;;;;;11.85;6.20;;;;;;;30.59;4.60;101317.50;5094962;28;20028;-74
2023/04/16 06:03:25;;;;;;;11.20;5.85;;;;;;;31.46;4.64;101340.97;5096355;28;20031;-77
2023/04/16 06:05:51;;;;;;;9.93;5.75;;;;;;;30.34;4.74;101323.78;5094536;28;20028;-74
2023/04/16 06:08:16;;;;;;;9.30;5.55;;;;;;;29.37;5.21;101305.94;5095282;28;20126;-79
2023/04/16 06:10:42;;;;;;;8.15;5.53;;;;;;;28.38;5.43;101336.69;5077318;28;20106;-67
2023/04/16 06:13:07;;;;;;;9.63;5.53;;;;;;;28.32;5.51;101334.78;5076423;28;20035;-67
2023/04/16 06:15:33;;;;;;;9.48;5.78;;;;;;;29.76;5.03;101333.72;5059814;28;20032;-73
2023/04/16 06:17:58;;;;;;;9.65;5.10;;;;;;;31.07;4.21;101322.50;5075932;28;20438;-69
2023/04/16 06:20:24;;;;;;;11.63;5.60;;;;;;;31.89;3.98;101328.22;5076368;28;20036;-72
2023/04/16 06:22:49;;;;;;;9.75;5.13;;;;;;;32.98;4.00;101332.13;5094368;28;20032;-72
2023/04/16 06:25:15;;;;;;;8.95;5.32;;;;;;;34.02;3.41;101354.94;5076572;28;20042;-73
2023/04/16 06:27:41;;;;;;;10.48;5.00;;;;;;;33.74;3.51;101333.44;5059360;28;20024;-71
2023/04/16 06:30:11;;;;;;;10.27;4.95;;;;;;;34.18;3.25;101344.16;5093805;28;20028;-71
2023/04/16 06:32:36;;;;;;;10.82;5.63;;;;;;;34.70;3.04;101331.28;5075660;28;20086;-72
2023/04/16 06:35:02;;;;;;;10.18;4.82;;;;;;;35.60;2.84;101328.66;5093944;28;20040;-73
2023/04/16 06:37:29;;;;;;;11.25;5.15;;;;;;;35.29;3.15;101332.88;5093562;28;20024;-71
2023/04/16 06:39:54;;;;;;;7.78;5.38;;;;;;;35.48;2.62;101325.94;5055739;28;20455;-72
2023/04/16 06:42:20;;;;;;;11.05;5.05;;;;;;;36.50;2.33;101329.50;5055982;28;20504;-71
2023/04/16 06:44:45;;;;;;;15.57;5.45;;;;;;;36.54;2.39;101321.50;5055444;28;20024;-71
2023/04/16 06:47:11;;;;;;;5.22;4.53;;;;;;;35.43;2.65;101316.66;5057048;28;20044;-73
2023/04/16 06:49:38;;;;;;;7.65;5.22;;;;;;;34.26;3.27;101337.38;5093511;28;20032;-73
2023/04/16 06:52:03;;;;;;;9.27;5.22;;;;;;;32.64;3.29;101312.38;5075706;28;20126;-74
2023/04/16 06:54:29;;;;;;;12.13;5.72;;;;;;;31.18;3.77;101312.63;5076026;28;20115;-70
2023/04/16 06:56:54;;;;;;;9.45;5.50;;;;;;;30.26;4.07;101319.34;5058378;28;20039;-72
2023/04/16 06:59:20;;;;;;;12.02;5.43;;;;;;;29.62;4.61;101300.63;5093541;28;20070;-71
2023/04/16 07:01:45;;;;;;;8.05;5.32;;;;;;;29.36;4.49;101309.75;5059382;28;20484;-76
2023/04/16 07:04:11;;;;;;;8.45;5.30;;;;;;;29.81;4.65;101300.78;5075619;28;20426;-78
2023/04/16 07:06:37;;;;;;;10.18;5.32;;;;;;;30.75;4.06;101324.47;5058973;28;20028;-72
2023/04/16 07:09:02;;;;;;;12.55;5.53;;;;;;;30.71;4.56;101320.44;5075792;28;20032;-69
2023/04/16 07:11:28;;;;;;;9.60;5.63;;;;;;;29.96;4.53;101316.25;5093459;28;20028;-65
2023/04/16 07:13:53;;;;;;;11.02;5.20;;;;;;;28.50;5.11;101313.03;5058303;28;20370;-70
2023/04/16 07:16:19;;;;;;;9.18;5.55;;;;;;;27.61;5.00;101306.38;5074990;28;20052;-69
2023/04/16 07:18:44;;;;;;;11.80;5.47;;;;;;;27.51;5.64;101312.28;5092661;28;20480;-70
2023/04/16 07:21:10;;;;;;;15.48;5.75;;;;;;;27.84;5.40;101306.13;5075349;28;20032;-71
2023/04/16 07:23:35;;;;;;;11.63;5.35;;;;;;;28.72;5.10;101318.38;5074790;28;20028;-69
2023/04/16 07:26:01;;;;;;;11.35;5.40;;;;;;;28.67;5.11;101309.88;5092741;28;20035;-65
2023/04/16 07:28:26;;;;;;;9.38;4.80;;;;;;;27.76;5.16;101318.13;5093268;28;20035;-73
2023/04/16 07:30:52;;;;;;;10.20;4.75;;;;;;;27.36;5.14;101323.31;5058665;28;20020;-72
2023/04/16 07:33:17;;;;;;;14.23;5.55;;;;;;;27.36;5.44;101313.19;5092790;28;20097;-67
2023/04/16 07:35:44;;;;;;;11.73;5.25;;;;;;;27.31;5.26;101312.06;5074947;28;20043;-70
2023/04/16 07:38:09;;;;;;;13.07;4.70;;;;;;;26.26;5.80;101306.94;5092869;28;20074;-69
2023/04/16 07:40:36;;;;;;;8.27;4.90;;;;;;;25.08;6.48;101322.88;5075640;28;20052;-70
2023/04/16 07:43:01;;;;;;;7.68;4.78;;;;;;;23.77;6.69;101306.91;5058684;28;20483;-67
2023/04/16 07:45:27;;;;;;;11.15;5.63;;;;;;;22.28;7.62;101284.91;5058522;28;20081;-71
2023/04/16 07:47:52;;;;;;;7.40;4.78;;;;;;;21.19;8.02;101289.91;5079160;28;20247;-70
2023/04/16 07:50:18;;;;;;;9.07;5.03;;;;;;;21.02;8.46;101311.56;5083861;28;20450;-71
2023/04/16 07:52:44;;;;;;;9.65;5.43;;;;;;;21.47;7.92;101306.13;5098257;28;20036;-71
2023/04/16 07:55:10;;;;;;;13.10;6.00;;;;;;;22.42;7.96;101302.53;5074562;28;20039;-71
2023/04/16 07:57:36;;;;;;;10.32;5.50;;;;;;;22.85;7.22;101307.09;5092990;28;20024;-71
2023/04/16 08:00:03;;;;;;;10.32;4.90;;;;;;;22.43;7.34;101295.22;5092955;28;20032;-69
2023/04/16 08:02:30;;;;;;;7.10;4.63;;;;;;;22.44;7.64;101297.78;5093330;28;20032;-74
2023/04/16 08:04:56;;;;;;;6.60;4.75;;;;;;;22.44;6.81;101286.88;5074531;28;20408;-68
2023/04/16 08:07:21;;;;;;;6.80;4.38;;;;;;;21.56;7.45;101290.69;5074859;28;20077;-66
2023/04/16 08:09:49;;;;;;;7.43;4.80;;;;;;;20.50;8.18;101304.91;5075334;28;20044;-70
2023/04/16 08:12:18;;;;;;;7.75;5.63;;;;;;;19.77;8.41;101290.19;5075503;28;20044;-71
2023/04/16 08:14:44;;;;;;;9.88;4.88;;;;;;;19.04;8.85;101291.59;5092825;28;20044;-74
2023/04/16 08:17:11;;;;;;;7.40;4.68;;;;;;;18.25;9.27;101278.94;5092458;28;20035;-74
2023/04/16 08:19:36;;;;;;;7.55;4.47;;;;;;;18.03;9.35;101283.56;5093736;28;20028;-73
2023/04/16 08:22:02;;;;;;;6.13;4.15;;;;;;;17.87;9.22;101287.63;5058503;28;20024;-72
2023/04/16 08:24:27;;;;;;;11.88;5.22;;;;;;;17.24;9.42;101282.25;5076040;28;20387;-72
2023/04/16 08:26:53;;;;;;;9.15;4.40;;;;;;;16.95;10.03;101281.03;5077803;28;20095;-74
2023/04/16 08:29:19;;;;;;;8.52;4.72;;;;;;;16.91;10.04;101266.91;5096016;28;20063;-74
2023/04/16 08:31:45;;;;;;;9.90;4.40;;;;;;;16.73;9.93;101273.84;5078319;28;20042;-73
2023/04/16 08:34:11;;;;;;;8.90;3.95;;;;;;;16.82;9.90;101278.50;5078111;28;20040;-74
2023/04/16 08:36:37;;;;;;;5.88;3.70;;;;;;;16.97;9.72;101262.81;5095871;28;20046;-73
2023/04/16 08:39:03;;;;;;;11.48;4.85;;;;;;;17.14;9.78;101265.97;5095280;28;20044;-73
2023/04/16 08:41:31;;;;;;;6.82;4.35;;;;;;;17.38;9.20;101262.16;5096713;28;20113;-74
2023/04/16 08:44:03;;;;;;;5.97;4.05;;;;;;;17.19;9.32;101240.22;5096704;28;20362;-73
2023/04/16 08:46:30;;;;;;;6.82;4.35;;;;;;;17.29;9.22;101258.38;5079560;28;20086;-74
2023/04/16 08:48:58;;;;;;;8.88;3.92;;;;;;;17.17;9.03;101263.84;5064376;28;20059;-74
2023/04/16 08:51:26;;;;;;;8.88;4.20;;;;;;;16.50;9.53;101228.84;5081445;28;20369;-74
2023/04/16 08:53:53;;;;;;;9.00;4.10;;;;;;;16.16;9.81;101230.78;5081460;28;20036;-73
2023/04/16 08:56:25;;;;;;;7.60;4.00;;;;;;;16.45;9.72;101254.53;5079978;28;20028;-74
2023/04/16 08:58:53;;;;;;;8.45;4.13;;;;;;;16.43;9.60;101259.22;5096598;28;20027;-74
2023/04/16 09:01:20;;;;;;;6.68;4.20;;;;;;;16.19;10.01;101250.31;5079408;28;20028;-75
2023/04/16 09:03:47;;;;;;;7.47;4.10;;;;;;;16.08;9.86;101239.50;5097669;28;20032;-74
2023/04/16 09:06:13;;;;;;;7.82;4.05;;;;;;;15.87;10.11;101240.22;5078616;28;20050;-75
2023/04/16 09:08:39;;;;;;;8.82;3.65;;;;;;;15.73;9.85;101259.41;5095946;28;20028;-73
2023/04/16 09:11:05;;;;;;;6.68;3.80;;;;;;;15.48;9.86;101235.19;5096397;28;20422;-76
2023/04/16 09:13:31;;;;;;;7.05;3.90;;;;;;;15.28;10.13;101239.47;5077574;28;20081;-75
2023/04/16 09:15:57;;;;;;;8.02;3.55;;;;;;;14.83;10.27;101209.69;5096399;28;20058;-74
2023/04/16 09:18:23;;;;;;;7.28;4.10;;;;;;;14.76;10.69;101233.53;5096801;28;20444;-73
2023/04/16 09:20:50;;;;;;;6.78;3.67;;;;;;;14.83;10.62;101229.44;5061019;28;20032;-73
2023/04/16 09:23:16;;;;;;;6.97;4.00;;;;;;;14.91;10.74;101232.38;5077866;28;20129;-75
2023/04/16 09:25:42;;;;;;;8.18;3.63;;;;;;;14.85;10.66;101240.09;5077954;28;20035;-74
2023/04/16 09:28:08;;;;;;;12.65;5.82;;;;;;;14.56;11.14;101222.41;5060922;28;20363;-67
2023/04/16 09:30:35;;;;;;;5.15;3.50;;;;;;;14.50;10.92;101204.88;5077966;28;20059;-74
2023/04/16 09:33:15;;;;;;;7.95;3.88;;;;;;;14.82;10.66;101222.28;5077491;28;20028;-71
2023/04/16 09:35:48;;;;;;;5.40;3.50;;;;;;;14.90;10.46;101235.19;5061346;28;20062;-75
2023/04/16 09:38:15;;;;;;;6.43;3.60;;;;;;;14.82;10.58;101253.81;5077312;28;20040;-73
2023/04/16 09:40:41;;;;;;;6.82;3.97;;;;;;;14.81;10.71;101244.84;5073937;28;20049;-73
2023/04/16 09:43:17;;;;;;;7.40;4.00;;;;;;;14.99;10.90;101228.22;5074594;28;20040;-74
2023/04/16 09:45:51;;;;;;;7.93;3.65;;;;;;;15.12;10.57;101226.31;5073606;28;20036;-74
2023/04/16 09:48:30;;;;;;;5.10;3.35;;;;;;;15.30;10.80;101225.84;5074377;28;20515;-73
2023/04/16 09:50:57;;;;;;;6.68;4.07;;;;;;;15.55;10.73;101238.28;5073206;28;20030;-74
2023/04/16 09:53:29;;;;;;;10.02;3.85;;;;;;;15.51;10.84;101234.09;5073895;28;20094;-73
2023/04/16 09:55:59;;;;;;;6.55;4.18;;;;;;;15.48;10.64;101231.66;5073991;28;20396;-75
2023/04/16 09:58:25;;;;;;;5.28;3.85;;;;;;;15.47;10.80;101211.88;5074489;28;20028;-73
2023/04/16 10:01:08;;;;;;;8.68;3.97;;;;;;;15.87;10.55;101217.78;5057329;28;20028;-74
2023/04/16 10:03:36;;;;;;;6.45;3.60;;;;;;;16.05;10.82;101229.81;5073876;28;20123;-74
2023/04/16 10:06:28;;;;;;;6.65;4.63;;;;;;;16.47;10.26;101221.00;5074180;28;20025;-74
2023/04/16 10:08:55;;;;;;;8.40;4.80;;;;;;;16.08;10.44;101226.00;5072630;28;20516;-72
2023/04/16 10:11:22;;;;;;;8.88;4.28;;;;;;;15.93;10.43;101225.41;5056527;28;20050;-74
2023/04/16 10:13:48;;;;;;;6.15;3.80;;;;;;;15.89;10.89;101213.97;5073989;28;20115;-72
2023/04/16 10:16:14;;;;;;;8.68;3.85;;;;;;;15.82;10.97;101215.44;5073457;28;20051;-74
2023/04/16 10:18:42;;;;;;;6.50;3.70;;;;;;;15.75;10.77;101214.22;5073986;28;20528;-75
2023/04/16 10:21:11;;;;;;;6.55;3.90;;;;;;;15.45;10.73;101210.31;5074143;28;20048;-74
2023/04/16 10:23:41;;;;;;;8.40;4.10;;;;;;;15.19;11.17;101226.69;5073590;28;20082;-74
2023/04/16 10:26:07;;;;;;;7.15;4.13;;;;;;;15.12;11.56;101217.34;5073112;28;20025;-75
2023/04/16 10:28:34;;;;;;;4.20;3.30;;;;;;;15.07;11.42;101202.38;5072956;28;20455;-73
2023/04/16 10:31:03;;;;;;;5.72;4.13;;;;;;;15.12;11.39;101212.84;5073855;28;20422;-73
2023/04/16 10:33:34;;;;;;;16.80;4.20;;;;;;;15.22;11.23;101175.22;5072529;28;20032;-73
2023/04/16 10:36:22;;;;;;;7.70;3.75;;;;;;;15.76;11.40;101183.53;5073187;28;20024;-73
2023/04/16 10:38:49;;;;;;;7.63;3.95;;;;;;;15.97;10.96;101209.81;5074671;28;20128;-74
2023/04/16 10:41:15;;;;;;;6.03;3.67;;;;;;;16.04;10.72;101178.59;5094064;28;20054;-72
2023/04/16 10:43:50;;;;;;;9.35;3.70;;;;;;;16.49;10.60;101208.19;5076247;28;20039;-75
2023/04/16 10:46:30;;;;;;;4.23;2.70;;;;;;;16.64;10.31;101187.13;5075756;28;20063;-75
2023/04/16 10:48:59;;;;;;;7.30;3.60;;;;;;;16.31;10.59;101197.09;5075438;28;20058;-74
2023/04/16 10:51:30;;;;;;;10.68;3.63;;;;;;;16.07;10.72;101194.56;5099602;28;20028;-75
2023/04/16 10:54:01;;;;;;;6.40;3.25;;;;;;;15.88;11.01;101187.09;5096426;28;20366;-73
2023/04/16 10:56:31;;;;;;;4.45;3.20;;;;;;;15.61;10.97;101204.53;5092726;28;20035;-73
2023/04/16 10:58:57;;;;;;;6.60;3.40;;;;;;;15.33;11.33;101160.88;5093869;28;20032;-75
2023/04/16 11:01:57;;;;;;;9.40;3.83;;;;;;;15.71;11.40;101201.97;5074214;28;20080;-74
2023/04/16 11:04:23;;;;;;;5.68;3.35;;;;;;;15.42;11.53;101186.22;5059893;28;20042;-74
2023/04/16 11:07:07;;;;;;;6.72;3.20;;;;;;;15.48;11.50;101174.97;5074867;28;20110;-74
2023/04/16 11:09:51;;;;;;;7.65;3.70;;;;;;;15.49;11.51;101182.94;5090531;28;20020;-73
2023/04/16 11:12:23;;;;;;;6.90;3.35;;;;;;;15.49;11.81;101172.13;5090766;28;20035;-74
2023/04/16 11:14:50;;;;;;;7.72;3.22;;;;;;;15.72;11.54;101166.72;5073819;28;20113;-74
2023/04/16 11:17:17;;;;;;;7.30;3.50;;;;;;;15.69;11.39;101164.28;5092215;28;20071;-74
2023/04/16 11:19:42;;;;;;;5.85;4.07;;;;;;;15.79;11.10;101189.56;5074995;28;20077;-69
2023/04/16 11:22:15;;;;;;;5.40;3.10;;;;;;;15.77;11.29;101174.47;5092456;28;20362;-75
2023/04/16 11:24:44;;;;;;;6.28;3.40;;;;;;;15.55;11.47;101160.00;5092773;28;20032;-75